Detalii statie FLORA ARNO ARAD [00001998]

Toti senzorii

Date Temperatura solului [C]Precipitatii [mm]Voltaj baterie [mV]Leaf Wetness [Min]HC Air temperature [C]HC Relative humidity [%]Punctul de roua [C]
medieminmaxsumaultimatimpmedieminmaxmediemediemin
2019-08-15 20:00:00 23.3 23.3 23.5 0 6992 18.74 17.4 20.29 98.72 18.4 17.4
2019-08-15 21:00:00 23 22.9 23.3 0 6972 16.48 15.9 17.11 100 16.4 15.9
2019-08-15 22:00:00 22.8 22.6 22.9 0 6972 15.12 14.55 15.71 100 15 14.5
2019-08-15 23:00:00 22.6 22.4 22.7 0 6962 14.12 13.66 14.84 100 14 13.6
2019-08-16 00:00:00 22.3 22.1 22.5 0 6962 13.93 13.37 14.39 100 13.8 13.3
2019-08-16 01:00:00 22.1 22 22.4 0 6942 13.34 13.11 13.7 100 13.3 13.1
2019-08-16 02:00:00 21.9 21.7 22 0 6952 13 12.05 13.46 100 12.9 12
2019-08-16 03:00:00 21.6 21.5 21.8 0 6942 12.61 11.99 13.07 100 12.5 11.9
2019-08-16 04:00:00 21.5 21.4 21.7 0 6952 12.26 11.77 13.03 100 12.2 11.7
2019-08-16 05:00:00 21.3 21.1 21.6 0 6942 11.82 11.07 12.26 100 11.7 11
2019-08-16 06:00:00 21.1 21 21.2 0 6932 11.72 11.49 11.92 100 11.6 11.4
2019-08-16 07:00:00 20.9 20.8 21.1 0.2 6962 12.49 11.77 13.66 100 12.4 11.7
2019-08-16 08:00:00 20.7 20.7 20.9 0 6982 15.44 14.33 17.65 100 15.3 14.3
2019-08-16 09:00:00 20.6 20.6 20.7 0 7010 19.23 18.4 20.07 99.97 19.1 18.4
2019-08-16 10:00:00 20.7 20.6 20.9 0 7158 21.26 20.52 22.12 97.23 20.7 20.2
2019-08-16 11:00:00 21 20.8 21.3 0 7362 22.88 22.19 23.44 83.77 19.8 19
2019-08-16 12:00:00 21.4 21.2 21.7 0 7372 24.16 23.45 24.96 77.07 19.7 19.1
2019-08-16 13:00:00 22.1 21.8 22.6 0 7372 25.2 24.44 25.93 71.17 19.4 18.8
2019-08-16 14:00:00 22.8 22.6 23.1 0 7372 25.88 25.25 26.47 65.79 18.8 17.9
2019-08-16 15:00:00 23.3 23 23.6 0 7372 26.1 25.66 26.81 66.5 19.2 18.1
2019-08-16 16:00:00 23.8 23.6 24 0 7372 26.31 25.47 26.66 65.26 19 18.1
2019-08-16 17:00:00 24.1 24.1 24.4 0 7352 25.41 24.49 26.51 65.05 18.2 17.4
2019-08-16 18:00:00 24.1 24 24.3 0 7158 24.79 24.25 25.21 65.69 17.7 16.9
2019-08-16 19:00:00 24 24 24.2 0 7060 24.75 24.01 25.3 68.46 18.4 17.7
2019-08-16 20:00:00 23.7 23.7 24 0 6982 22.54 21.14 23.88 82.8 19.2 17.6
2019-08-16 21:00:00 23.5 23.4 23.8 0 7010 19.95 18.79 20.93 99.92 19.9 18.7
2019-08-16 22:00:00 23.3 23.1 23.5 0 7000 17.78 17.29 18.71 100 17.7 17.2
2019-08-16 23:00:00 23 22.9 23.2 0 7000 16.82 16.19 17.22 100 16.7 16.1
2019-08-17 00:00:00 22.7 22.6 23 0 7000 16.18 15.4 17.15 100 16.1 15.4
2019-08-17 01:00:00 22.5 22.3 22.7 0 6992 15.01 14.73 15.41 100 14.9 14.7
2019-08-17 02:00:00 22.2 22.1 22.4 0 6982 14.64 14.05 15 100 14.6 14
2019-08-17 03:00:00 22.1 22 22.3 0 6992 13.85 13.29 14.58 100 13.8 13.2
2019-08-17 04:00:00 21.8 21.7 22 0 6992 13.39 12.49 14.25 100 13.3 12.4
2019-08-17 05:00:00 21.6 21.6 21.8 0 6992 14.49 13.92 15.03 100 14.4 13.9
2019-08-17 06:00:00 21.5 21.5 21.7 0 6992 14.39 13.68 15.02 100 14.3 13.6
2019-08-17 07:00:00 21.3 21.2 21.5 0 7020 13.79 13.43 14.66 100 13.7 13.4
2019-08-17 08:00:00 21.1 21.1 21.4 0 7070 16.63 14.92 17.98 100 16.5 14.9
2019-08-17 09:00:00 21 21 21.1 0 7108 19.92 18.26 21.64 100 19.8 18.2
2019-08-17 10:00:00 21 21 21.1 0 7274 22.53 21.95 23.22 99.9 22.4 21.9
2019-08-17 11:00:00 21.3 21.1 21.6 0 7274 23.91 23.3 24.7 96.31 23.1 22.3
2019-08-17 12:00:00 21.8 21.6 22.2 0 7206 24.36 23.65 25.96 92.89 23 22.1
2019-08-17 13:00:00 22.2 22.1 22.5 0 7236 25.08 24.31 26.14 86.41 22.5 21.6
2019-08-17 14:00:00 22.6 22.5 22.9 0 7362 25.72 24.22 27.05 81.42 22.1 20.9
2019-08-17 15:00:00 23 22.9 23.3 0 7362 27.35 26.93 28.2 74.31 22.2 21.4
2019-08-17 16:00:00 23.4 23.1 23.6 0 7372 27.05 25.92 27.9 72.68 21.5 20.6
2019-08-17 17:00:00 23.7 23.4 24 0 7362 27.35 26.73 27.97 69.17 21 19.9
2019-08-17 18:00:00 23.9 23.8 24 0 7352 26.67 25.02 27.42 70 20.5 19.4
2019-08-17 19:00:00 23.8 23.7 24 0 7352 25.29 24.89 25.58 74.08 20.1 19.8